createdAt,value
2023-03-16T00:00:02.832Z,1005.47
2023-03-16T00:01:02.784Z,1005.47
2023-03-16T00:02:02.818Z,1005.48
2023-03-16T00:03:02.881Z,1005.49
2023-03-16T00:04:02.794Z,1005.50
2023-03-16T00:05:02.737Z,1005.51
2023-03-16T00:06:02.813Z,1005.53
2023-03-16T00:07:02.716Z,1005.55
2023-03-16T00:08:02.763Z,1005.55
2023-03-16T00:09:02.688Z,1005.53
2023-03-16T00:10:02.695Z,1005.53
2023-03-16T00:11:02.738Z,1005.52
2023-03-16T00:12:02.751Z,1005.52
2023-03-16T00:13:02.721Z,1005.52
2023-03-16T00:14:02.618Z,1005.52
2023-03-16T00:15:02.661Z,1005.53
2023-03-16T00:16:02.718Z,1005.54
2023-03-16T00:17:02.670Z,1005.54
2023-03-16T00:18:02.638Z,1005.53
2023-03-16T00:19:02.601Z,1005.53
2023-03-16T00:20:02.594Z,1005.52
2023-03-16T00:21:02.605Z,1005.51
2023-03-16T00:22:02.594Z,1005.49
2023-03-16T00:23:02.544Z,1005.48
2023-03-16T00:24:02.531Z,1005.47
2023-03-16T00:25:02.610Z,1005.46
2023-03-16T00:26:02.551Z,1005.45
2023-03-16T00:27:02.545Z,1005.44
2023-03-16T00:28:02.566Z,1005.44
2023-03-16T00:29:02.546Z,1005.43
2023-03-16T00:30:02.463Z,1005.41
2023-03-16T00:31:02.474Z,1005.40
2023-03-16T00:32:02.542Z,1005.38
2023-03-16T00:33:02.508Z,1005.35
2023-03-16T00:34:02.447Z,1005.32
2023-03-16T00:35:02.469Z,1005.29
2023-03-16T00:36:02.652Z,1005.27
2023-03-16T00:37:02.454Z,1005.26
2023-03-16T00:38:02.461Z,1005.26
2023-03-16T00:39:02.358Z,1005.27
2023-03-16T00:40:02.366Z,1005.26
2023-03-16T00:41:02.343Z,1005.24
2023-03-16T00:42:02.377Z,1005.23
2023-03-16T00:43:02.380Z,1005.21
2023-03-16T00:44:02.334Z,1005.20
2023-03-16T00:45:02.354Z,1005.21
2023-03-16T00:46:02.325Z,1005.21
2023-03-16T00:47:02.315Z,1005.23
2023-03-16T00:48:02.295Z,1005.22
2023-03-16T00:49:02.318Z,1005.22
2023-03-16T00:50:02.344Z,1005.21
2023-03-16T00:51:02.274Z,1005.23
2023-03-16T00:52:02.292Z,1005.25
2023-03-16T00:53:02.253Z,1005.26
2023-03-16T00:54:02.231Z,1005.24
2023-03-16T00:55:02.227Z,1005.24
2023-03-16T00:56:02.234Z,1005.25
2023-03-16T00:57:02.221Z,1005.23
2023-03-16T00:58:02.218Z,1005.24
2023-03-16T00:59:02.181Z,1005.24
2023-03-16T01:00:02.133Z,1005.24
2023-03-16T01:01:02.349Z,1005.23
2023-03-16T01:02:02.148Z,1005.24
2023-03-16T01:03:02.205Z,1005.25
2023-03-16T01:04:02.146Z,1005.27
2023-03-16T01:05:02.115Z,1005.27
2023-03-16T01:06:02.079Z,1005.27
2023-03-16T01:07:02.081Z,1005.27
2023-03-16T01:08:02.117Z,1005.26
2023-03-16T01:09:02.076Z,1005.25
2023-03-16T01:10:02.107Z,1005.25
2023-03-16T01:11:02.139Z,1005.23
2023-03-16T01:12:02.010Z,1005.22
2023-03-16T01:13:02.017Z,1005.21
2023-03-16T01:14:02.026Z,1005.23
2023-03-16T01:15:02.083Z,1005.24
2023-03-16T01:16:02.048Z,1005.25
2023-03-16T01:17:02.018Z,1005.25
2023-03-16T01:18:01.995Z,1005.25
2023-03-16T01:19:02.002Z,1005.25
2023-03-16T01:20:01.933Z,1005.25
2023-03-16T01:21:01.992Z,1005.27
2023-03-16T01:22:01.989Z,1005.29
2023-03-16T01:23:01.972Z,1005.30
2023-03-16T01:24:01.934Z,1005.32
2023-03-16T01:25:01.917Z,1005.32
2023-03-16T01:26:01.923Z,1005.31
2023-03-16T01:27:01.917Z,1005.30
2023-03-16T01:28:01.862Z,1005.27
2023-03-16T01:29:01.836Z,1005.23
2023-03-16T01:30:01.846Z,1005.21
2023-03-16T01:31:02.000Z,1005.19
2023-03-16T01:32:01.885Z,1005.18
2023-03-16T01:33:01.873Z,1005.18
2023-03-16T01:34:01.850Z,1005.18
2023-03-16T01:35:01.835Z,1005.17
2023-03-16T01:36:01.883Z,1005.16
2023-03-16T01:37:01.807Z,1005.16
2023-03-16T01:38:01.815Z,1005.13
2023-03-16T01:39:01.824Z,1005.11
2023-03-16T01:40:01.816Z,1005.10
2023-03-16T01:41:01.776Z,1005.10
2023-03-16T01:42:01.784Z,1005.09
2023-03-16T01:43:01.744Z,1005.07
2023-03-16T01:44:01.785Z,1005.06
2023-03-16T01:45:01.790Z,1005.03
2023-03-16T01:46:01.707Z,1005.00
2023-03-16T01:47:01.675Z,1004.98
2023-03-16T01:48:01.635Z,1004.97
2023-03-16T01:49:01.629Z,1004.98
2023-03-16T01:50:01.653Z,1004.98
2023-03-16T01:51:01.653Z,1004.99
2023-03-16T01:52:01.636Z,1004.98
2023-03-16T01:53:01.684Z,1004.98
2023-03-16T01:54:01.657Z,1004.96
2023-03-16T01:55:01.595Z,1004.95
2023-03-16T01:56:01.640Z,1004.93
2023-03-16T01:57:01.620Z,1004.92
2023-03-16T01:58:01.600Z,1004.92
2023-03-16T01:59:01.694Z,1004.91
2023-03-16T02:00:01.580Z,1004.89
2023-03-16T02:01:01.639Z,1004.85
2023-03-16T02:02:01.590Z,1004.83
2023-03-16T02:03:01.557Z,1004.82
2023-03-16T02:04:01.622Z,1004.80
2023-03-16T02:05:01.563Z,1004.79
2023-03-16T02:06:01.600Z,1004.79
2023-03-16T02:07:01.530Z,1004.80
2023-03-16T02:08:01.518Z,1004.79
2023-03-16T02:09:01.595Z,1004.80
2023-03-16T02:10:01.453Z,1004.81
2023-03-16T02:11:01.418Z,1004.82
2023-03-16T02:12:01.463Z,1004.84
2023-03-16T02:13:01.424Z,1004.87
2023-03-16T02:14:01.504Z,1004.88
2023-03-16T02:15:01.445Z,1004.89
2023-03-16T02:16:01.453Z,1004.91
2023-03-16T02:17:01.398Z,1004.91
2023-03-16T02:18:01.374Z,1004.91
2023-03-16T02:19:01.386Z,1004.91
2023-03-16T02:20:01.370Z,1004.92
2023-03-16T02:21:01.358Z,1004.91
2023-03-16T02:22:01.327Z,1004.90
2023-03-16T02:23:01.454Z,1004.89
2023-03-16T02:24:01.331Z,1004.88
2023-03-16T02:25:01.247Z,1004.87
2023-03-16T02:26:01.265Z,1004.87
2023-03-16T02:27:01.262Z,1004.87
2023-03-16T02:28:01.250Z,1004.86
2023-03-16T02:29:01.217Z,1004.84
2023-03-16T02:30:01.299Z,1004.82
2023-03-16T02:31:01.256Z,1004.78
2023-03-16T02:32:01.240Z,1004.75
2023-03-16T02:33:01.293Z,1004.71
2023-03-16T02:34:01.296Z,1004.68
2023-03-16T02:35:01.202Z,1004.65
2023-03-16T02:36:01.234Z,1004.64
2023-03-16T02:37:01.165Z,1004.63
2023-03-16T02:38:01.214Z,1004.64
2023-03-16T02:39:01.213Z,1004.64
2023-03-16T02:40:01.225Z,1004.65
2023-03-16T02:41:01.154Z,1004.64
2023-03-16T02:42:01.176Z,1004.64
2023-03-16T02:43:01.113Z,1004.60
2023-03-16T02:44:01.185Z,1004.57
2023-03-16T02:45:01.138Z,1004.54
2023-03-16T02:46:01.174Z,1004.50
2023-03-16T02:47:01.092Z,1004.47
2023-03-16T02:48:01.042Z,1004.46
2023-03-16T02:49:01.109Z,1004.43
2023-03-16T02:50:01.053Z,1004.41
2023-03-16T02:51:01.041Z,1004.41
2023-03-16T02:52:01.101Z,1004.41
2023-03-16T02:53:01.067Z,1004.41
2023-03-16T02:54:01.077Z,1004.42
2023-03-16T02:55:00.991Z,1004.44
2023-03-16T02:56:00.944Z,1004.46
2023-03-16T02:57:00.974Z,1004.47
2023-03-16T02:58:00.984Z,1004.45
2023-03-16T02:59:00.903Z,1004.43
2023-03-16T03:00:01.001Z,1004.41
2023-03-16T03:01:00.943Z,1004.39
2023-03-16T03:02:01.000Z,1004.39
2023-03-16T03:03:00.941Z,1004.39
2023-03-16T03:04:00.904Z,1004.39
2023-03-16T03:05:00.913Z,1004.38
2023-03-16T03:06:00.879Z,1004.37
2023-03-16T03:07:00.840Z,1004.35
2023-03-16T03:08:00.828Z,1004.33
2023-03-16T03:09:00.810Z,1004.31
2023-03-16T03:10:00.819Z,1004.31
2023-03-16T03:11:00.824Z,1004.32
2023-03-16T03:12:00.785Z,1004.29
2023-03-16T03:13:00.763Z,1004.27
2023-03-16T03:14:00.779Z,1004.25
2023-03-16T03:15:00.937Z,1004.25
2023-03-16T03:16:00.781Z,1004.26
2023-03-16T03:17:00.737Z,1004.26
2023-03-16T03:18:00.728Z,1004.26
2023-03-16T03:19:00.732Z,1004.25
2023-03-16T03:20:00.723Z,1004.24
2023-03-16T03:21:00.743Z,1004.23
2023-03-16T03:22:00.727Z,1004.21
2023-03-16T03:23:00.725Z,1004.21
2023-03-16T03:24:00.675Z,1004.21
2023-03-16T03:25:00.688Z,1004.22
2023-03-16T03:26:00.746Z,1004.27
2023-03-16T03:27:00.639Z,1004.32
2023-03-16T03:28:00.694Z,1004.36
2023-03-16T03:29:00.620Z,1004.37
2023-03-16T03:30:00.646Z,1004.37
2023-03-16T03:31:00.597Z,1004.37
2023-03-16T03:32:00.654Z,1004.36
2023-03-16T03:33:00.682Z,1004.38
2023-03-16T03:34:00.574Z,1004.39
2023-03-16T03:35:00.538Z,1004.37
2023-03-16T03:36:00.574Z,1004.34
2023-03-16T03:37:00.585Z,1004.33
2023-03-16T03:38:00.611Z,1004.31
2023-03-16T03:39:00.597Z,1004.29
2023-03-16T03:40:00.499Z,1004.30
2023-03-16T03:41:00.542Z,1004.30
2023-03-16T03:42:00.511Z,1004.31
2023-03-16T03:43:00.553Z,1004.31
2023-03-16T03:44:00.507Z,1004.31
2023-03-16T03:45:00.435Z,1004.33
2023-03-16T03:46:00.560Z,1004.32
2023-03-16T03:47:00.577Z,1004.33
2023-03-16T03:48:00.479Z,1004.33
2023-03-16T03:49:00.460Z,1004.36
2023-03-16T03:50:00.455Z,1004.36
2023-03-16T03:51:00.371Z,1004.37
2023-03-16T03:52:00.382Z,1004.36
2023-03-16T03:53:00.592Z,1004.36
2023-03-16T03:54:00.398Z,1004.35
2023-03-16T03:55:00.360Z,1004.36
2023-03-16T03:56:00.390Z,1004.36
2023-03-16T03:57:00.361Z,1004.36
2023-03-16T03:58:00.345Z,1004.36
2023-03-16T03:59:00.327Z,1004.35
2023-03-16T04:00:00.313Z,1004.36
2023-03-16T04:01:00.286Z,1004.36
2023-03-16T04:02:00.532Z,1004.36
2023-03-16T04:03:00.435Z,1004.37
2023-03-16T04:04:00.286Z,1004.39
2023-03-16T04:05:00.299Z,1004.40
2023-03-16T04:06:00.293Z,1004.42
2023-03-16T04:07:00.255Z,1004.42
2023-03-16T04:08:00.228Z,1004.41
2023-03-16T04:09:00.230Z,1004.40
2023-03-16T04:10:00.183Z,1004.38
2023-03-16T04:11:00.185Z,1004.36
2023-03-16T04:12:00.173Z,1004.35
2023-03-16T04:13:00.200Z,1004.33
2023-03-16T04:14:00.156Z,1004.33
2023-03-16T04:15:00.138Z,1004.32
2023-03-16T04:16:00.282Z,1004.31
2023-03-16T04:17:00.199Z,1004.33
2023-03-16T04:18:00.117Z,1004.32
2023-03-16T04:19:00.102Z,1004.32
2023-03-16T04:20:00.155Z,1004.32
2023-03-16T04:21:00.053Z,1004.33
2023-03-16T04:22:00.176Z,1004.32
2023-03-16T04:23:00.065Z,1004.31
2023-03-16T04:24:00.136Z,1004.28
2023-03-16T04:25:00.070Z,1004.24
2023-03-16T04:26:00.037Z,1004.21
2023-03-16T04:27:00.090Z,1004.17
2023-03-16T04:27:59.989Z,1004.15
2023-03-16T04:29:00.022Z,1004.14
2023-03-16T04:30:00.032Z,1004.14
2023-03-16T04:30:59.996Z,1004.14
2023-03-16T04:32:00.045Z,1004.12
2023-03-16T04:33:00.113Z,1004.13
2023-03-16T04:33:59.959Z,1004.14
2023-03-16T04:34:59.997Z,1004.13
2023-03-16T04:36:00.047Z,1004.13
2023-03-16T04:36:59.969Z,1004.12
2023-03-16T04:37:59.921Z,1004.10
2023-03-16T04:38:59.882Z,1004.07
2023-03-16T04:39:59.901Z,1004.06
2023-03-16T04:40:59.879Z,1004.05
2023-03-16T04:41:59.901Z,1004.03
2023-03-16T04:42:59.891Z,1004.03
2023-03-16T04:43:59.847Z,1004.01
2023-03-16T04:44:59.869Z,1004.00
2023-03-16T04:45:59.852Z,1004.00
2023-03-16T04:46:59.840Z,1003.99
2023-03-16T04:47:59.890Z,1003.98
2023-03-16T04:48:59.842Z,1003.98
2023-03-16T04:49:59.817Z,1003.98
2023-03-16T04:50:59.834Z,1003.97
2023-03-16T04:51:59.758Z,1003.97
2023-03-16T04:52:59.763Z,1003.97
2023-03-16T04:53:59.782Z,1003.99
2023-03-16T04:54:59.819Z,1003.97
2023-03-16T04:55:59.846Z,1003.98
2023-03-16T04:56:59.722Z,1004.00
2023-03-16T04:57:59.692Z,1004.00
2023-03-16T04:58:59.714Z,1004.01
2023-03-16T04:59:59.746Z,1004.03
2023-03-16T05:00:59.686Z,1004.06
2023-03-16T05:01:59.675Z,1004.06
2023-03-16T05:02:59.635Z,1004.05
2023-03-16T05:03:59.935Z,1004.08
2023-03-16T05:04:59.743Z,1004.06
2023-03-16T05:05:59.719Z,1004.08
2023-03-16T05:06:59.675Z,1004.07
2023-03-16T05:07:59.578Z,1004.05
2023-03-16T05:08:59.621Z,1004.05
2023-03-16T05:09:59.625Z,1004.05
2023-03-16T05:10:59.562Z,1004.05
2023-03-16T05:11:59.490Z,1004.04
2023-03-16T05:12:59.489Z,1004.04
2023-03-16T05:13:59.466Z,1004.04
2023-03-16T05:14:59.476Z,1004.06
2023-03-16T05:15:59.542Z,1004.06
2023-03-16T05:16:59.480Z,1004.06
2023-03-16T05:17:59.453Z,1004.06
2023-03-16T05:18:59.427Z,1004.06
2023-03-16T05:19:59.430Z,1004.06
2023-03-16T05:20:59.411Z,1004.07
2023-03-16T05:21:59.398Z,1004.06
2023-03-16T05:22:59.401Z,1004.06
2023-03-16T05:23:59.381Z,1004.07
2023-03-16T05:24:59.361Z,1004.07
2023-03-16T05:25:59.328Z,1004.09
2023-03-16T05:26:59.335Z,1004.10
2023-03-16T05:27:59.342Z,1004.09
2023-03-16T05:28:59.342Z,1004.09
2023-03-16T05:29:59.301Z,1004.08
2023-03-16T05:30:59.361Z,1004.07
2023-03-16T05:31:59.315Z,1004.07
2023-03-16T05:32:59.390Z,1004.06
2023-03-16T05:33:59.280Z,1004.04
2023-03-16T05:34:59.288Z,1004.05
2023-03-16T05:35:59.331Z,1004.06
2023-03-16T05:36:59.244Z,1004.07
2023-03-16T05:37:59.260Z,1004.07
2023-03-16T05:38:59.216Z,1004.09
2023-03-16T05:39:59.190Z,1004.09
2023-03-16T05:40:59.229Z,1004.09
2023-03-16T05:41:59.179Z,1004.09
2023-03-16T05:42:59.183Z,1004.07
2023-03-16T05:43:59.153Z,1004.06
2023-03-16T05:44:59.151Z,1004.04
2023-03-16T05:45:59.153Z,1004.03
2023-03-16T05:46:59.346Z,1004.02
2023-03-16T05:47:59.127Z,1004.01
2023-03-16T05:48:59.128Z,1003.99
2023-03-16T05:49:59.093Z,1003.97
2023-03-16T05:50:59.082Z,1003.97
2023-03-16T05:51:59.085Z,1003.95
2023-03-16T05:52:59.096Z,1003.95
2023-03-16T05:53:59.071Z,1003.93
2023-03-16T05:54:59.080Z,1003.92
2023-03-16T05:55:59.031Z,1003.88
2023-03-16T05:56:59.026Z,1003.87
2023-03-16T05:57:59.059Z,1003.86
2023-03-16T05:58:59.029Z,1003.85
2023-03-16T05:59:59.001Z,1003.85
2023-03-16T06:00:58.980Z,1003.84
2023-03-16T06:01:59.025Z,1003.85
2023-03-16T06:02:59.011Z,1003.84
2023-03-16T06:03:59.047Z,1003.86
2023-03-16T06:04:58.967Z,1003.85
2023-03-16T06:05:58.946Z,1003.82
2023-03-16T06:06:58.929Z,1003.81
2023-03-16T06:07:59.038Z,1003.80
2023-03-16T06:08:58.942Z,1003.78
2023-03-16T06:09:58.930Z,1003.78
2023-03-16T06:10:58.935Z,1003.79
2023-03-16T06:11:58.891Z,1003.80
2023-03-16T06:12:59.975Z,1003.81
2023-03-16T06:13:58.859Z,1003.82
2023-03-16T06:14:58.847Z,1003.81
2023-03-16T06:15:58.909Z,1003.81
2023-03-16T06:16:58.889Z,1003.81
2023-03-16T06:17:58.870Z,1003.83
2023-03-16T06:18:59.959Z,1003.85
2023-03-16T06:19:58.799Z,1003.86
2023-03-16T06:20:58.796Z,1003.86
2023-03-16T06:21:58.837Z,1003.89
2023-03-16T06:22:58.779Z,1003.89
2023-03-16T06:23:58.754Z,1003.91
2023-03-16T06:24:58.747Z,1003.93
2023-03-16T06:25:58.737Z,1003.94
2023-03-16T06:26:58.713Z,1003.93
2023-03-16T06:27:58.745Z,1003.93
2023-03-16T06:28:58.714Z,1003.92
2023-03-16T06:29:58.680Z,1003.92
2023-03-16T06:30:58.675Z,1003.94
2023-03-16T06:31:58.784Z,1003.96
2023-03-16T06:32:58.699Z,1003.94
2023-03-16T06:33:58.655Z,1003.94
2023-03-16T06:34:58.661Z,1003.92
2023-03-16T06:35:58.782Z,1003.91
2023-03-16T06:36:58.727Z,1003.91
2023-03-16T06:37:58.604Z,1003.93
2023-03-16T06:38:58.647Z,1003.95
2023-03-16T06:39:58.589Z,1003.98
2023-03-16T06:40:58.577Z,1004.00
2023-03-16T06:41:58.586Z,1004.03
2023-03-16T06:42:58.587Z,1004.03
2023-03-16T06:43:58.540Z,1004.05
2023-03-16T06:44:58.540Z,1004.04
2023-03-16T06:45:58.637Z,1004.05
2023-03-16T06:46:58.525Z,1004.06
2023-03-16T06:47:58.701Z,1004.06
2023-03-16T06:48:58.505Z,1004.06
2023-03-16T06:49:58.485Z,1004.06
2023-03-16T06:50:58.467Z,1004.07
2023-03-16T06:51:58.448Z,1004.08
2023-03-16T06:52:58.474Z,1004.09
2023-03-16T06:53:58.426Z,1004.09
2023-03-16T06:54:58.495Z,1004.08
2023-03-16T06:55:58.420Z,1004.07
2023-03-16T06:56:58.402Z,1004.07
2023-03-16T06:57:58.383Z,1004.07
2023-03-16T06:58:58.404Z,1004.06
2023-03-16T06:59:58.415Z,1004.06
2023-03-16T07:00:58.449Z,1004.05
2023-03-16T07:01:58.344Z,1004.03
2023-03-16T07:03:00.480Z,1004.01
2023-03-16T07:03:58.463Z,1004.00
2023-03-16T07:04:58.325Z,1003.98
2023-03-16T07:05:58.324Z,1003.97
2023-03-16T07:06:58.292Z,1003.96
2023-03-16T07:07:58.293Z,1003.95
2023-03-16T07:08:58.304Z,1003.94
2023-03-16T07:09:58.275Z,1003.94
2023-03-16T07:10:58.296Z,1003.94
2023-03-16T07:11:58.244Z,1003.96
2023-03-16T07:12:58.248Z,1003.99
2023-03-16T07:13:58.227Z,1004.01
2023-03-16T07:14:58.198Z,1004.02
2023-03-16T07:15:58.227Z,1004.03
2023-03-16T07:16:58.348Z,1004.03
2023-03-16T07:17:58.166Z,1004.04
2023-03-16T07:18:58.158Z,1004.04
2023-03-16T07:19:58.161Z,1004.04
2023-03-16T07:20:58.158Z,1004.07
2023-03-16T07:21:58.134Z,1004.04
2023-03-16T07:22:58.146Z,1004.07
2023-03-16T07:23:58.116Z,1004.06
2023-03-16T07:24:58.159Z,1004.08
2023-03-16T07:25:58.106Z,1004.07
2023-03-16T07:26:58.122Z,1004.07
2023-03-16T07:27:58.075Z,1004.10
2023-03-16T07:28:58.293Z,1004.05
2023-03-16T07:29:58.071Z,1004.07
2023-03-16T07:31:03.779Z,1004.07
2023-03-16T07:31:58.075Z,1004.06
2023-03-16T07:32:58.136Z,1004.05
2023-03-16T07:33:57.990Z,1004.05
2023-03-16T07:34:59.149Z,1004.13
2023-03-16T07:35:58.026Z,1004.09
2023-03-16T07:36:57.979Z,1004.07
2023-03-16T07:37:57.955Z,1004.07
2023-03-16T07:38:57.969Z,1004.05
2023-03-16T07:39:57.966Z,1004.05
2023-03-16T07:40:57.930Z,1004.04
2023-03-16T07:41:57.922Z,1004.05
2023-03-16T07:42:57.915Z,1004.05
2023-03-16T07:43:57.922Z,1004.06
2023-03-16T07:44:57.902Z,1004.06
2023-03-16T07:45:57.976Z,1004.08
2023-03-16T07:46:57.869Z,1004.09
2023-03-16T07:47:57.841Z,1004.10
2023-03-16T07:48:57.849Z,1004.06
2023-03-16T07:49:57.827Z,1004.09
2023-03-16T07:50:57.814Z,1004.03
2023-03-16T07:51:57.808Z,1004.02
2023-03-16T07:52:57.807Z,1004.01
2023-03-16T07:53:57.816Z,1003.99
2023-03-16T07:54:57.789Z,1003.99
2023-03-16T07:55:57.763Z,1003.95
2023-03-16T07:56:57.801Z,1003.91
2023-03-16T07:57:57.734Z,1003.92
2023-03-16T07:58:57.753Z,1003.92
2023-03-16T07:59:57.742Z,1003.89
2023-03-16T08:00:57.712Z,1003.88
2023-03-16T08:01:57.850Z,1003.85
2023-03-16T08:02:57.719Z,1003.87
2023-03-16T08:03:57.804Z,1003.86
2023-03-16T08:04:57.696Z,1003.83
2023-03-16T08:05:57.654Z,1003.81
2023-03-16T08:06:57.655Z,1003.80
2023-03-16T08:07:57.641Z,1003.80
2023-03-16T08:08:57.617Z,1003.78
2023-03-16T08:09:57.632Z,1003.85
2023-03-16T08:10:57.690Z,1003.74
2023-03-16T08:11:57.629Z,1003.72
2023-03-16T08:12:57.680Z,1003.72
2023-03-16T08:13:57.579Z,1003.74
2023-03-16T08:14:57.564Z,1003.73
2023-03-16T08:15:57.577Z,1003.76
2023-03-16T08:16:57.532Z,1003.78
2023-03-16T08:17:57.536Z,1003.75
2023-03-16T08:18:57.560Z,1003.78
2023-03-16T08:19:57.504Z,1003.74
2023-03-16T08:20:57.493Z,1003.77
2023-03-16T08:22:01.420Z,1003.76
2023-03-16T08:22:57.488Z,1003.75
2023-03-16T08:23:57.488Z,1003.71
2023-03-16T08:24:57.456Z,1003.80
2023-03-16T08:25:57.473Z,1003.75
2023-03-16T08:26:57.516Z,1003.67
2023-03-16T08:27:57.442Z,1003.64
2023-03-16T08:28:57.554Z,1003.62
2023-03-16T08:29:57.391Z,1003.61
2023-03-16T08:30:57.428Z,1003.62
2023-03-16T08:31:57.381Z,1003.60
2023-03-16T08:32:57.524Z,1003.59
2023-03-16T08:33:57.417Z,1003.56
2023-03-16T08:34:57.350Z,1003.53
2023-03-16T08:35:57.346Z,1003.51
2023-03-16T08:36:57.317Z,1003.50
2023-03-16T08:37:57.332Z,1003.49
2023-03-16T08:39:06.415Z,1003.48
2023-03-16T08:39:57.293Z,1003.52
2023-03-16T08:40:58.064Z,1003.47
2023-03-16T08:41:57.282Z,1003.44
2023-03-16T08:42:57.269Z,1003.39
2023-03-16T08:43:57.237Z,1003.36
2023-03-16T08:44:57.265Z,1003.36
2023-03-16T08:45:57.233Z,1003.34
2023-03-16T08:46:57.332Z,1003.34
2023-03-16T08:47:57.205Z,1003.36
2023-03-16T08:48:57.213Z,1003.36
2023-03-16T08:49:57.203Z,1003.37
2023-03-16T08:50:57.203Z,1003.36
2023-03-16T08:51:57.164Z,1003.38
2023-03-16T08:52:57.166Z,1003.37
2023-03-16T08:53:57.139Z,1003.33
2023-03-16T08:55:03.444Z,1003.35
2023-03-16T08:55:57.129Z,1003.32
2023-03-16T08:56:57.101Z,1003.31
2023-03-16T08:57:57.100Z,1003.27
2023-03-16T08:58:57.081Z,1003.28
2023-03-16T08:59:57.083Z,1003.31
2023-03-16T09:00:57.085Z,1003.25
2023-03-16T09:01:57.118Z,1003.21
2023-03-16T09:02:57.031Z,1003.19
2023-03-16T09:03:57.073Z,1003.15
2023-03-16T09:04:57.026Z,1003.19
2023-03-16T09:05:57.042Z,1003.16
2023-03-16T09:07:08.424Z,1003.19
2023-03-16T09:07:56.974Z,1003.19
2023-03-16T09:08:56.967Z,1003.16
2023-03-16T09:09:56.982Z,1003.18
2023-03-16T09:10:56.994Z,1003.18
2023-03-16T09:11:56.957Z,1003.21
2023-03-16T09:12:56.923Z,1003.17
2023-03-16T09:13:56.908Z,1003.21
2023-03-16T09:14:56.940Z,1003.17
2023-03-16T09:15:57.008Z,1003.20
2023-03-16T09:16:56.876Z,1003.16
2023-03-16T09:17:56.892Z,1003.21
2023-03-16T09:18:56.865Z,1003.19
2023-03-16T09:20:08.054Z,1003.17
2023-03-16T09:20:58.992Z,1003.16
2023-03-16T09:21:56.834Z,1003.22
2023-03-16T09:22:56.815Z,1003.23
2023-03-16T09:23:56.984Z,1003.19
2023-03-16T09:24:56.780Z,1003.27
2023-03-16T09:25:56.824Z,1003.20
2023-03-16T09:26:56.860Z,1003.16
2023-03-16T09:27:56.768Z,1003.16
2023-03-16T09:28:56.751Z,1003.19
2023-03-16T09:29:56.754Z,1003.15
2023-03-16T09:30:56.731Z,1003.15
2023-03-16T09:31:56.766Z,1003.03
2023-03-16T09:32:56.906Z,1003.10
2023-03-16T09:33:56.687Z,1003.05
2023-03-16T09:34:56.696Z,1002.99
2023-03-16T09:35:56.702Z,1002.96
2023-03-16T09:36:56.668Z,1003.03
2023-03-16T09:38:05.674Z,1002.96
2023-03-16T09:38:56.653Z,1002.94
2023-03-16T09:40:03.214Z,1002.89
2023-03-16T09:40:56.650Z,1002.87
2023-03-16T09:41:56.630Z,1002.85
2023-03-16T09:42:56.619Z,1002.93
2023-03-16T09:43:56.614Z,1002.91
2023-03-16T09:44:56.586Z,1002.95
2023-03-16T09:45:56.662Z,1003.01
2023-03-16T09:46:56.558Z,1003.00
2023-03-16T09:47:56.569Z,1003.02
2023-03-16T09:48:56.566Z,1003.00
2023-03-16T09:49:56.521Z,1003.07
2023-03-16T09:50:56.674Z,1003.02
2023-03-16T09:51:56.521Z,1002.97
2023-03-16T09:52:56.500Z,1002.95
2023-03-16T09:53:56.505Z,1002.99
2023-03-16T09:54:56.511Z,1002.96
2023-03-16T09:55:56.474Z,1002.98
2023-03-16T09:56:56.470Z,1002.98
2023-03-16T09:57:56.499Z,1002.98
2023-03-16T09:58:56.457Z,1003.07
2023-03-16T09:59:56.464Z,1002.98
2023-03-16T10:00:56.445Z,1002.97
2023-03-16T10:01:56.575Z,1002.98
2023-03-16T10:02:56.399Z,1002.94
2023-03-16T10:03:56.433Z,1003.01
2023-03-16T10:04:56.376Z,1002.91
2023-03-16T10:05:56.384Z,1002.93
2023-03-16T10:06:56.333Z,1002.90
2023-03-16T10:07:56.358Z,1002.95
2023-03-16T10:08:56.325Z,1002.99
2023-03-16T10:09:56.333Z,1003.04
2023-03-16T10:10:56.310Z,1003.05
2023-03-16T10:11:56.324Z,1003.07
2023-03-16T10:12:57.979Z,1003.09
2023-03-16T10:13:56.260Z,1003.05
2023-03-16T10:14:56.263Z,1003.08
2023-03-16T10:15:56.260Z,1003.04
2023-03-16T10:16:56.384Z,1003.03
2023-03-16T10:17:56.232Z,1003.05
2023-03-16T10:18:56.205Z,1003.08
2023-03-16T10:19:56.217Z,1003.07
2023-03-16T10:20:56.185Z,1003.02
2023-03-16T10:21:56.213Z,1003.05
2023-03-16T10:22:56.176Z,1002.99
2023-03-16T10:23:56.154Z,1003.01
2023-03-16T10:24:56.155Z,1002.98
2023-03-16T10:25:56.131Z,1002.92
2023-03-16T10:26:56.129Z,1002.93
2023-03-16T10:27:56.131Z,1002.91
2023-03-16T10:28:56.178Z,1002.91
2023-03-16T10:29:56.113Z,1002.94
2023-03-16T10:30:56.072Z,1002.98
2023-03-16T10:31:56.082Z,1002.94
2023-03-16T10:32:56.109Z,1002.95
2023-03-16T10:33:56.072Z,1002.99
2023-03-16T10:34:56.046Z,1002.92
2023-03-16T10:35:56.058Z,1002.93
2023-03-16T10:36:56.031Z,1002.92
2023-03-16T10:37:56.035Z,1002.91
2023-03-16T10:38:56.008Z,1002.92
2023-03-16T10:39:56.042Z,1002.93
2023-03-16T10:40:56.006Z,1002.95
2023-03-16T10:41:55.966Z,1002.98
2023-03-16T10:42:55.984Z,1003.03
2023-03-16T10:43:55.952Z,1002.97
2023-03-16T10:44:55.949Z,1002.94
2023-03-16T10:45:55.955Z,1002.89
2023-03-16T10:46:55.970Z,1002.88
2023-03-16T10:47:55.897Z,1002.92
2023-03-16T10:48:55.883Z,1002.87
2023-03-16T10:49:55.885Z,1002.95
2023-03-16T10:50:55.872Z,1002.88
2023-03-16T10:51:55.860Z,1002.83
2023-03-16T10:52:57.630Z,1002.80
2023-03-16T10:53:55.857Z,1002.78
2023-03-16T10:54:55.822Z,1002.76
2023-03-16T10:55:55.808Z,1002.74
2023-03-16T10:56:55.852Z,1002.76
2023-03-16T10:57:55.811Z,1002.75
2023-03-16T10:58:55.789Z,1002.74
2023-03-16T10:59:55.791Z,1002.73
2023-03-16T11:00:55.813Z,1002.68
2023-03-16T11:01:55.781Z,1002.65
2023-03-16T11:02:55.754Z,1002.62
2023-03-16T11:03:55.752Z,1002.64
2023-03-16T11:04:55.788Z,1002.57
2023-03-16T11:05:55.706Z,1002.60
2023-03-16T11:06:55.739Z,1002.69
2023-03-16T11:07:55.700Z,1002.63
2023-03-16T11:08:55.692Z,1002.63
2023-03-16T11:09:55.671Z,1002.62
2023-03-16T11:10:56.372Z,1002.62
2023-03-16T11:11:55.656Z,1002.62
2023-03-16T11:12:57.592Z,1002.68
2023-03-16T11:13:55.617Z,1002.66
2023-03-16T11:14:55.627Z,1002.64
2023-03-16T11:15:55.598Z,1002.60
2023-03-16T11:16:55.665Z,1002.58
2023-03-16T11:17:55.601Z,1002.53
2023-03-16T11:18:55.564Z,1002.57
2023-03-16T11:19:55.594Z,1002.53
2023-03-16T11:20:55.581Z,1002.45
2023-03-16T11:21:55.566Z,1002.42
2023-03-16T11:22:55.529Z,1002.40
2023-03-16T11:23:55.517Z,1002.35
2023-03-16T11:24:55.534Z,1002.33
2023-03-16T11:25:55.543Z,1002.31
2023-03-16T11:26:55.492Z,1002.32
2023-03-16T11:27:55.500Z,1002.36
2023-03-16T11:28:55.486Z,1002.43
2023-03-16T11:29:55.455Z,1002.44
2023-03-16T11:30:55.545Z,1002.34
2023-03-16T11:31:55.444Z,1002.32
2023-03-16T11:32:55.469Z,1002.29
2023-03-16T11:33:55.497Z,1002.32
2023-03-16T11:34:55.413Z,1002.30
2023-03-16T11:35:59.302Z,1002.25
2023-03-16T11:36:55.385Z,1002.24
2023-03-16T11:37:55.406Z,1002.33
2023-03-16T11:38:55.871Z,1002.21
2023-03-16T11:39:55.374Z,1002.26
2023-03-16T11:40:55.382Z,1002.31
2023-03-16T11:41:55.341Z,1002.25
2023-03-16T11:42:55.333Z,1002.16
2023-03-16T11:43:55.315Z,1002.19
2023-03-16T11:44:55.322Z,1002.18
2023-03-16T11:45:55.338Z,1002.15
2023-03-16T11:46:55.285Z,1002.18
2023-03-16T11:47:55.301Z,1002.16
2023-03-16T11:48:55.280Z,1002.19
2023-03-16T11:49:55.252Z,1002.24
2023-03-16T11:50:55.269Z,1002.19
2023-03-16T11:51:55.247Z,1002.19
2023-03-16T11:52:55.221Z,1002.12
2023-03-16T11:53:55.202Z,1002.12
2023-03-16T11:54:55.219Z,1002.09
2023-03-16T11:55:55.212Z,1002.05
2023-03-16T11:56:55.183Z,1002.03
2023-03-16T11:57:55.210Z,1002.01
2023-03-16T11:58:55.188Z,1002.02
2023-03-16T12:00:01.122Z,1002.03
2023-03-16T12:00:55.158Z,1001.95
2023-03-16T12:02:00.760Z,1001.91
2023-03-16T12:02:55.455Z,1001.85
2023-03-16T12:03:55.213Z,1001.81
2023-03-16T12:04:55.117Z,1001.84